Airfield :
LOGIN :

Register | Disclaimer

   EN    FR    IT 

 










Legend :    VFR   Marginal VFR   IFR   Intensive IFR   Very Intensive IFR
Visi :
Ceiling :
>= 8 km
>= 3000ft
5 to 8 km
1000 to 3000 ft
1500m to 5 km
500 to 1000 ft
800 to 1500m
200 to 500 ft
< 800m
< 200 ft
Symbols :   Thunderstorms  Fog  Heavy snow  Heavy precipitations  Wind > 20 kt
SIGMETs :     Misc.  Thunderstorms  Icing  Turbulence  Mountain Waves  Volcanic Ashes







- Airport Elevation : 157 ft
- IATA code : SXF


EDDB - Berlin Schönefeld

CURRENT METAR :
  • 231350Z 06006KT 8000 -RA OVC033 11/10 Q1009 TEMPO 4500 RA

EXPIRED METARs :
  • 231320Z 07006KT 7000 RA OVC028 11/10 Q1010 TEMPO 4500 -RA
  • 231250Z 09004KT 9999 -RA OVC028 12/10 Q1010 NOSIG
  • 231220Z 11004KT 070V160 9999 -RA OVC031 12/09 Q1010 NOSIG
  • 231150Z 15007KT 120V190 9999 -RA FEW026 BKN035 12/08 Q1011 NOSIG
  • 231120Z 18005KT 140V210 9999 -RA FEW025 BKN036 BKN061 13/08 Q1012 NOSIG

TAF TAF EDDB
Valid from the 23 at 12:00 until the 24 at 12:00 UTC


231100Z 2312/2412 23006KT 9999 BKN035
BECMG 2312/2315 04007KT
TEMPO 2312/2321 RA BKN009
BECMG 2318/2321 30015KT
PROB30
TEMPO 2410/2412 31020G35KT
No reported NOTAMs for that airfield.



MET'MAP, your aeronautical weather chart ! - Copyright ORBIFLY December 2007 - Disclaimer

ORBIFLY MET'MAP TEAM :

Programming & Development : Alexandra Zaïnal
Concept & Development : Baudouin d'Aumeries
Co-Development & Prog : Marc-Olivier Méhu
Technical & hardware support : Manuel Goepfert

Contact : metmap@orbifly.com




SOURCES & CREDITS :

   NOAA